This is the latest recevied weather packets stored in our database for station/object W5HKR. If no packets are shown the sender has not sent any weather packets the latest 10 day(s).
| Time | Temp. | Humidity | Pressure | Rain* | Wind** | Luminosity | Snow |
|---|---|---|---|---|---|---|---|
| 1777486596 | 27.78° C | 79% | 983.6 hPa | 0 mm | - | - | - |
| 1777486403 | 27.78° C | 80% | 983.7 hPa | 0 mm | - | - | - |
| 1777486105 | 27.22° C | 80% | 983.4 hPa | 0 mm | - | - | - |
| 1777485805 | 27.22° C | 80% | 983.4 hPa | 0 mm | - | - | - |
| 1777485505 | 27.22° C | 79% | 983.5 hPa | 0 mm | - | - | - |
| 1777485205 | 27.22° C | 80% | 983.7 hPa | 0 mm | - | - | - |
| 1777484906 | 18.33° C | 91% | 990.6 hPa | 0 mm | - | - | - |
| 1777484604 | 18.33° C | 91% | 990.6 hPa | 0 mm | - | - | - |
| 1777484435 | 26.67° C | 82% | 983.8 hPa | 0 mm | - | - | - |
| 1777484305 | 26.67° C | 82% | 984.1 hPa | 0 mm | - | - | - |
| 1777484003 | 26.67° C | 82% | 983.8 hPa | 0 mm | - | - | - |
| 1777483704 | 26.67° C | 83% | 983.6 hPa | 0 mm | - | - | - |
| 1777483404 | 26.11° C | 83% | 983.7 hPa | 0 mm | - | - | - |
| 1777483357 | 18.33° C | 91% | 990.6 hPa | 0 mm | - | - | - |
| 1777483105 | 18.33° C | 91% | 990.6 hPa | 0 mm | - | - | - |
| 1777482804 | 18.33° C | 91% | 990.6 hPa | 0 mm | - | - | - |
| 1777482504 | 26.67° C | 83% | 983.7 hPa | 0 mm | - | - | - |
| 1777482276 | 26.67° C | 82% | 984.1 hPa | 0 mm | - | - | - |
| 1777482204 | 26.67° C | 83% | 984.1 hPa | 0 mm | - | - | - |
| 1777481906 | 18.33° C | 91% | 990.6 hPa | 0 mm | - | - | - |
| 1777481606 | 26.11° C | 84% | 983.7 hPa | 0 mm | - | - | - |
| 1777481306 | 18.33° C | 91% | 990.6 hPa | 0 mm | - | - | - |
| 1777481195 | 18.33° C | 91% | 990.6 hPa | 0 mm | - | - | - |
| 1777481005 | 18.33° C | 91% | 990.6 hPa | 0 mm | - | - | - |
| 1777480705 | 26.11° C | 84% | 984.2 hPa | 0 mm | - | - | - |
* Rain latest hour (hover to see other rain measurements)
** Current wind speed in m/s (hover to see current wind gust speed)